createdAt,value
2022-10-05T00:02:34.803Z,5.60
2022-10-05T00:06:32.037Z,5.60
2022-10-05T00:10:29.981Z,5.60
2022-10-05T00:14:36.212Z,5.60
2022-10-05T00:18:33.345Z,5.60
2022-10-05T00:22:33.714Z,5.60
2022-10-05T00:26:33.673Z,5.60
2022-10-05T00:30:34.484Z,5.60
2022-10-05T00:34:34.409Z,5.60
2022-10-05T00:38:31.433Z,5.50
2022-10-05T00:42:46.970Z,5.50
2022-10-05T00:46:50.618Z,5.50
2022-10-05T00:51:04.371Z,5.40
2022-10-05T00:55:49.418Z,5.40
2022-10-05T01:00:07.838Z,5.30
2022-10-05T01:04:49.380Z,5.30
2022-10-05T01:09:12.884Z,5.30
2022-10-05T01:13:19.876Z,5.30
2022-10-05T01:17:38.957Z,5.30
2022-10-05T01:22:08.691Z,5.30
2022-10-05T01:26:34.607Z,5.30
2022-10-05T01:30:54.367Z,5.30
2022-10-05T01:35:00.339Z,5.30
2022-10-05T01:39:25.794Z,5.20
2022-10-05T01:43:46.459Z,5.20
2022-10-05T01:47:55.652Z,5.10
2022-10-05T01:52:41.025Z,5.10
2022-10-05T01:57:04.282Z,5.10
2022-10-05T02:01:28.329Z,5.10
2022-10-05T02:05:38.734Z,5.00
2022-10-05T02:09:48.526Z,5.00
2022-10-05T02:13:59.995Z,5.00
2022-10-05T02:18:08.892Z,5.00
2022-10-05T02:22:16.303Z,5.00
2022-10-05T02:26:15.073Z,4.90
2022-10-05T02:30:16.316Z,4.90
2022-10-05T02:34:28.391Z,4.90
2022-10-05T02:38:55.689Z,4.80
2022-10-05T02:43:40.212Z,4.80
2022-10-05T02:48:25.784Z,4.80
2022-10-05T02:52:59.661Z,4.70
2022-10-05T02:57:36.879Z,4.80
2022-10-05T03:01:46.345Z,4.70
2022-10-05T03:06:01.284Z,4.60
2022-10-05T03:10:14.771Z,4.60
2022-10-05T03:14:42.654Z,4.50
2022-10-05T03:19:02.811Z,4.50
2022-10-05T03:23:04.645Z,4.50
2022-10-05T03:27:57.522Z,4.40
2022-10-05T03:32:31.632Z,4.40
2022-10-05T03:36:44.757Z,4.40
2022-10-05T03:41:19.987Z,4.40
2022-10-05T03:45:41.243Z,4.30
2022-10-05T03:49:57.523Z,4.30
2022-10-05T03:54:23.864Z,4.20
2022-10-05T03:58:31.736Z,4.20
2022-10-05T04:02:45.354Z,4.20
2022-10-05T04:06:49.356Z,4.10
2022-10-05T04:10:58.220Z,4.10
2022-10-05T04:15:19.171Z,4.10
2022-10-05T04:19:31.042Z,4.10
2022-10-05T04:23:52.325Z,4.20
2022-10-05T04:28:14.595Z,4.30
2022-10-05T04:32:38.883Z,4.30
2022-10-05T04:37:04.074Z,4.30
2022-10-05T04:41:31.678Z,4.30
2022-10-05T04:45:47.779Z,4.30
2022-10-05T04:50:28.474Z,4.20
2022-10-05T04:55:10.117Z,4.30
2022-10-05T04:59:42.909Z,4.20
2022-10-05T05:04:30.831Z,4.20
2022-10-05T05:08:59.840Z,4.10
2022-10-05T05:13:23.115Z,4.20
2022-10-05T05:17:32.851Z,4.30
2022-10-05T05:21:59.149Z,4.30
2022-10-05T05:26:29.664Z,4.30
2022-10-05T05:30:44.410Z,4.60
2022-10-05T05:35:39.714Z,4.70
2022-10-05T05:40:15.787Z,4.80
2022-10-05T05:44:27.543Z,4.80
2022-10-05T05:48:43.866Z,4.90
2022-10-05T05:53:24.219Z,5.00
2022-10-05T05:57:47.547Z,4.90
2022-10-05T06:01:59.697Z,4.90
2022-10-05T06:06:18.383Z,4.90
2022-10-05T06:10:36.295Z,4.90
2022-10-05T06:14:59.283Z,4.90
2022-10-05T06:19:05.398Z,5.00
2022-10-05T06:23:14.886Z,5.20
2022-10-05T06:27:59.942Z,5.30
2022-10-05T06:32:13.628Z,5.50
2022-10-05T06:36:39.825Z,5.70
2022-10-05T06:41:03.975Z,5.90
2022-10-05T06:45:53.315Z,6.10
2022-10-05T06:50:42.554Z,6.30
2022-10-05T06:55:29.984Z,6.70
2022-10-05T06:59:59.414Z,7.20
2022-10-05T07:04:37.510Z,7.60
2022-10-05T07:09:14.657Z,8.00
2022-10-05T07:13:52.851Z,8.40
2022-10-05T07:18:21.359Z,8.80
2022-10-05T07:22:38.185Z,9.20
2022-10-05T07:27:31.961Z,9.50
2022-10-05T07:31:41.218Z,9.70
2022-10-05T07:36:28.859Z,9.90
2022-10-05T07:40:41.570Z,9.90
2022-10-05T07:44:52.602Z,9.90
2022-10-05T07:49:00.096Z,10.10
2022-10-05T07:53:03.211Z,10.20
2022-10-05T07:57:38.814Z,10.30
2022-10-05T08:01:44.445Z,10.50
2022-10-05T08:05:45.279Z,10.60
2022-10-05T08:10:05.544Z,10.70
2022-10-05T08:14:10.884Z,10.90
2022-10-05T08:18:46.274Z,11.10
2022-10-05T08:22:53.675Z,11.40
2022-10-05T08:27:01.873Z,11.90
2022-10-05T08:31:07.590Z,12.40
2022-10-05T08:35:34.066Z,12.60
2022-10-05T08:39:42.694Z,12.70
2022-10-05T08:44:11.834Z,13.00
2022-10-05T08:48:23.812Z,13.30
2022-10-05T08:52:30.043Z,13.40
2022-10-05T08:56:33.315Z,13.60
2022-10-05T09:00:49.187Z,13.80
2022-10-05T09:05:10.742Z,14.00
2022-10-05T09:09:34.003Z,14.00
2022-10-05T09:13:36.826Z,14.40
2022-10-05T09:18:06.173Z,14.30
2022-10-05T09:22:18.065Z,14.60
2022-10-05T09:26:44.262Z,14.70
2022-10-05T09:31:16.448Z,15.00
2022-10-05T09:35:58.081Z,15.50
2022-10-05T09:40:52.248Z,15.90
2022-10-05T09:45:21.453Z,16.00
2022-10-05T09:49:58.163Z,16.20
2022-10-05T09:54:36.851Z,16.80
2022-10-05T09:59:18.628Z,17.30
2022-10-05T10:04:09.920Z,17.70
2022-10-05T10:08:32.378Z,17.60
2022-10-05T10:13:00.255Z,17.60
2022-10-05T10:17:22.319Z,18.10
2022-10-05T10:21:47.897Z,18.10
2022-10-05T10:26:35.018Z,18.40
2022-10-05T10:31:28.012Z,18.70
2022-10-05T10:35:31.132Z,18.70
2022-10-05T10:40:13.628Z,18.90
2022-10-05T10:44:48.203Z,19.70
2022-10-05T10:49:26.617Z,20.10
2022-10-05T10:54:04.646Z,20.60
2022-10-05T10:59:11.588Z,20.10
2022-10-05T11:04:03.983Z,19.90
2022-10-05T11:08:25.552Z,19.40
2022-10-05T11:13:08.421Z,19.20
2022-10-05T11:17:51.006Z,19.30
2022-10-05T11:21:58.410Z,19.50
2022-10-05T11:26:36.704Z,19.80
2022-10-05T11:31:06.290Z,20.10
2022-10-05T11:35:58.037Z,20.40
2022-10-05T11:40:33.280Z,20.80
2022-10-05T11:45:14.077Z,21.40
2022-10-05T11:49:31.270Z,21.60
2022-10-05T11:53:42.972Z,21.80
2022-10-05T11:57:58.530Z,22.10
2022-10-05T12:02:07.163Z,22.20
2022-10-05T12:06:26.561Z,23.00
2022-10-05T12:10:50.909Z,22.80
2022-10-05T12:15:07.159Z,22.40
2022-10-05T12:19:41.169Z,22.30
2022-10-05T12:23:44.389Z,21.90
2022-10-05T12:27:49.340Z,22.10
2022-10-05T12:32:06.028Z,22.30
2022-10-05T12:36:36.003Z,22.30
2022-10-05T12:41:05.463Z,22.40
2022-10-05T12:46:20.598Z,22.80
2022-10-05T12:50:44.739Z,22.80
2022-10-05T12:55:21.833Z,23.00
2022-10-05T12:59:41.329Z,23.20
2022-10-05T13:03:48.791Z,23.40
2022-10-05T13:08:15.184Z,23.50
2022-10-05T13:13:02.701Z,23.40
2022-10-05T13:17:24.401Z,23.00
2022-10-05T13:21:46.157Z,23.20
2022-10-05T13:26:03.270Z,23.00
2022-10-05T13:30:13.335Z,22.50
2022-10-05T13:34:33.828Z,22.60
2022-10-05T13:38:55.491Z,22.40
2022-10-05T13:43:15.066Z,22.20
2022-10-05T13:47:24.626Z,22.00
2022-10-05T13:51:40.404Z,22.00
2022-10-05T13:56:06.415Z,22.00
2022-10-05T14:00:25.602Z,21.90
2022-10-05T14:04:47.103Z,21.70
2022-10-05T14:08:52.384Z,21.70
2022-10-05T14:12:55.409Z,21.60
2022-10-05T14:16:58.954Z,21.40
2022-10-05T14:21:12.780Z,21.40
2022-10-05T14:25:09.950Z,21.40
2022-10-05T14:29:23.752Z,21.50
2022-10-05T14:33:21.925Z,21.30
2022-10-05T14:37:33.359Z,21.20
2022-10-05T14:41:36.478Z,20.90
2022-10-05T14:45:33.926Z,20.70
2022-10-05T14:49:36.287Z,20.60
2022-10-05T14:53:43.613Z,20.50
2022-10-05T14:58:11.208Z,20.20
2022-10-05T15:02:17.138Z,20.10
2022-10-05T15:06:31.025Z,19.90
2022-10-05T15:10:49.820Z,19.50
2022-10-05T15:14:47.572Z,19.40
2022-10-05T15:18:53.592Z,19.10
2022-10-05T15:23:12.586Z,19.00
2022-10-05T15:27:51.002Z,18.80
2022-10-05T15:31:56.215Z,18.60
2022-10-05T15:36:20.893Z,18.40
2022-10-05T15:40:37.520Z,18.20
2022-10-05T15:44:49.892Z,18.00
2022-10-05T15:49:14.662Z,17.80
2022-10-05T15:53:27.055Z,17.70
2022-10-05T15:58:11.349Z,17.50
2022-10-05T16:02:26.061Z,17.40
2022-10-05T16:06:41.718Z,17.20
2022-10-05T16:10:44.422Z,17.00
2022-10-05T16:15:28.460Z,16.80
2022-10-05T16:19:48.731Z,16.70
2022-10-05T16:24:15.797Z,16.60
2022-10-05T16:28:53.093Z,16.50
2022-10-05T16:33:15.824Z,16.40
2022-10-05T16:37:46.235Z,16.40
2022-10-05T16:42:04.051Z,16.20
2022-10-05T16:46:33.905Z,16.00
2022-10-05T16:50:49.858Z,15.80
2022-10-05T16:54:56.431Z,15.60
2022-10-05T16:59:28.598Z,15.50
2022-10-05T17:03:50.012Z,15.30
2022-10-05T17:08:01.525Z,15.20
2022-10-05T17:12:29.688Z,15.00
2022-10-05T17:17:26.692Z,14.80
2022-10-05T17:21:46.062Z,14.60
2022-10-05T17:25:56.157Z,14.40
2022-10-05T17:29:55.847Z,14.30
2022-10-05T17:34:16.914Z,14.10
2022-10-05T17:38:34.188Z,14.00
2022-10-05T17:42:37.151Z,13.90
2022-10-05T17:46:45.721Z,13.70
2022-10-05T17:51:02.983Z,13.60
2022-10-05T17:55:30.071Z,13.40
2022-10-05T17:59:54.003Z,13.30
2022-10-05T18:03:52.113Z,13.20
2022-10-05T18:08:12.641Z,13.10
2022-10-05T18:12:18.592Z,13.00
2022-10-05T18:17:27.842Z,13.00
2022-10-05T18:21:35.754Z,12.90
2022-10-05T18:25:52.925Z,12.90
2022-10-05T18:30:07.942Z,12.80
2022-10-05T18:34:38.358Z,12.90
2022-10-05T18:38:46.620Z,13.00
2022-10-05T18:42:57.681Z,13.10
2022-10-05T18:47:11.875Z,13.30
2022-10-05T18:52:13.768Z,13.40
2022-10-05T18:56:30.295Z,13.40
2022-10-05T19:01:05.577Z,13.50
2022-10-05T19:05:23.645Z,13.40
2022-10-05T19:10:08.802Z,13.40
2022-10-05T19:14:24.984Z,13.30
2022-10-05T19:18:46.408Z,13.30
2022-10-05T19:23:12.201Z,13.20
2022-10-05T19:27:46.556Z,13.10
2022-10-05T19:32:13.714Z,13.10
2022-10-05T19:36:54.763Z,13.10
2022-10-05T19:41:27.436Z,13.10
2022-10-05T19:45:29.502Z,13.10
2022-10-05T19:49:57.249Z,13.10
2022-10-05T19:54:01.993Z,13.00
2022-10-05T19:58:04.562Z,13.00
2022-10-05T20:02:02.526Z,12.90
2022-10-05T20:06:03.728Z,12.80
2022-10-05T20:10:35.192Z,12.70
2022-10-05T20:14:59.334Z,12.60
2022-10-05T20:19:19.867Z,12.50
2022-10-05T20:23:28.104Z,12.40
2022-10-05T20:27:47.533Z,12.30
2022-10-05T20:31:45.867Z,12.20
2022-10-05T20:35:43.307Z,12.10
2022-10-05T20:39:41.650Z,12.00
2022-10-05T20:43:39.454Z,11.90
2022-10-05T20:47:37.740Z,11.90
2022-10-05T20:51:34.723Z,11.90
2022-10-05T20:55:32.121Z,11.80
2022-10-05T20:59:29.184Z,11.70
2022-10-05T21:03:26.303Z,11.60
2022-10-05T21:07:23.512Z,11.60
2022-10-05T21:11:20.769Z,11.60
2022-10-05T21:15:17.792Z,11.50
2022-10-05T21:19:15.854Z,11.30
2022-10-05T21:23:12.829Z,11.20
2022-10-05T21:27:10.274Z,11.20
2022-10-05T21:31:10.335Z,11.00
2022-10-05T21:35:08.039Z,10.90
2022-10-05T21:39:05.105Z,10.80
2022-10-05T21:43:02.492Z,10.60
2022-10-05T21:46:59.879Z,10.50
2022-10-05T21:50:59.043Z,10.50
2022-10-05T21:54:56.140Z,10.40
2022-10-05T21:58:53.278Z,10.30
2022-10-05T22:02:50.363Z,10.20
2022-10-05T22:06:49.059Z,10.20
2022-10-05T22:10:46.214Z,10.20
2022-10-05T22:14:43.157Z,10.10
2022-10-05T22:18:40.979Z,10.20
2022-10-05T22:22:37.967Z,10.20
2022-10-05T22:26:35.217Z,10.20
2022-10-05T22:30:32.231Z,10.00
2022-10-05T22:34:29.236Z,9.90
2022-10-05T22:38:27.235Z,9.70
2022-10-05T22:42:24.459Z,9.70
2022-10-05T22:46:21.659Z,9.50
2022-10-05T22:50:18.955Z,9.40
2022-10-05T22:54:16.105Z,9.30
2022-10-05T22:58:13.089Z,9.20
2022-10-05T23:02:10.798Z,9.20
2022-10-05T23:06:20.345Z,9.10
2022-10-05T23:10:19.259Z,9.10
2022-10-05T23:14:16.844Z,9.10
2022-10-05T23:18:15.373Z,9.00
2022-10-05T23:22:12.342Z,9.00
2022-10-05T23:26:11.867Z,9.00
2022-10-05T23:30:11.896Z,9.00
2022-10-05T23:34:08.891Z,8.90
2022-10-05T23:38:05.959Z,8.80
2022-10-05T23:42:02.942Z,8.70
2022-10-05T23:46:01.166Z,8.60
2022-10-05T23:49:58.184Z,8.60
2022-10-05T23:53:55.251Z,8.50
2022-10-05T23:57:52.192Z,8.50
